Aviation Digital Data Service (ADDS)

Output produced by METARs form (0447 UTC 26 April 2015)
found at http://aviationweather.gov/adds/metars/
 
KLGA 260329Z 2603/2624 04008KT P6SM BKN250 
     FM261600 03008KT P6SM SCT050 
     FM262000 VRB05KT P6SM SCT050 SCT100 
     FM262300 32006KT P6SM BKN050 BKN100